Aviation Digital Data Service (ADDS)

Output produced by METARs form (1624 UTC 26 January 2015)
found at http://aviationweather.gov/adds/metars/
 
KGNV 261610Z 2616/2712 27018G25KT P6SM SCT035 
     FM262300 28011KT P6SM SCT100